sensor_id;sensor_type;location;lat;lon;timestamp;P1;P2;P0
28647;PMS5003;17137;51.494;-0.262;2024-01-10T00:00:13;9;7;
28647;PMS5003;17137;51.494;-0.262;2024-01-10T00:00:44;9;7;
28647;PMS5003;17137;51.494;-0.262;2024-01-10T00:01:14;10;8;
28647;PMS5003;17137;51.494;-0.262;2024-01-10T00:01:44;8;7;
28647;PMS5003;17137;51.494;-0.262;2024-01-10T00:02:14;8;7;
28647;PMS5003;17137;51.494;-0.262;2024-01-10T00:02:45;8;7;
28647;PMS5003;17137;51.494;-0.262;2024-01-10T00:03:15;8;8;
28647;PMS5003;17137;51.494;-0.262;2024-01-10T00:03:45;8;8;
28647;PMS5003;17137;51.494;-0.262;2024-01-10T00:04:16;8;8;
28647;PMS5003;17137;51.494;-0.262;2024-01-10T00:04:46;8;7;
28647;PMS5003;17137;51.494;-0.262;2024-01-10T00:05:16;8;7;
28647;PMS5003;17137;51.494;-0.262;2024-01-10T00:05:47;8;7;
28647;PMS5003;17137;51.494;-0.262;2024-01-10T00:06:17;7;6;
28647;PMS5003;17137;51.494;-0.262;2024-01-10T00:06:47;7;6;
28647;PMS5003;17137;51.494;-0.262;2024-01-10T00:07:17;7;6;
28647;PMS5003;17137;51.494;-0.262;2024-01-10T00:07:47;8;7;
28647;PMS5003;17137;51.494;-0.262;2024-01-10T00:08:18;8;7;
28647;PMS5003;17137;51.494;-0.262;2024-01-10T00:08:48;8;7;
28647;PMS5003;17137;51.494;-0.262;2024-01-10T00:09:18;9;7;
28647;PMS5003;17137;51.494;-0.262;2024-01-10T00:09:49;9;7;
28647;PMS5003;17137;51.494;-0.262;2024-01-10T00:10:19;9;7;
28647;PMS5003;17137;51.494;-0.262;2024-01-10T00:10:49;8;7;
28647;PMS5003;17137;51.494;-0.262;2024-01-10T00:11:21;8;7;
28647;PMS5003;17137;51.494;-0.262;2024-01-10T00:11:51;8;7;
28647;PMS5003;17137;51.494;-0.262;2024-01-10T00:12:21;9;7;
28647;PMS5003;17137;51.494;-0.262;2024-01-10T00:12:52;9;7;
28647;PMS5003;17137;51.494;-0.262;2024-01-10T00:13:22;9;7;
28647;PMS5003;17137;51.494;-0.262;2024-01-10T00:13:52;9;7;
28647;PMS5003;17137;51.494;-0.262;2024-01-10T00:14:23;9;7;
28647;PMS5003;17137;51.494;-0.262;2024-01-10T00:14:54;9;7;
28647;PMS5003;17137;51.494;-0.262;2024-01-10T00:15:24;9;7;
28647;PMS5003;17137;51.494;-0.262;2024-01-10T00:15:54;9;7;
28647;PMS5003;17137;51.494;-0.262;2024-01-10T00:16:24;9;7;
28647;PMS5003;17137;51.494;-0.262;2024-01-10T00:16:55;8;7;
28647;PMS5003;17137;51.494;-0.262;2024-01-10T00:17:25;8;7;
28647;PMS5003;17137;51.494;-0.262;2024-01-10T00:17:55;8;7;
28647;PMS5003;17137;51.494;-0.262;2024-01-10T00:18:26;8;6;
28647;PMS5003;17137;51.494;-0.262;2024-01-10T00:18:56;8;6;
28647;PMS5003;17137;51.494;-0.262;2024-01-10T00:19:26;8;6;
28647;PMS5003;17137;51.494;-0.262;2024-01-10T00:19:57;7;6;
28647;PMS5003;17137;51.494;-0.262;2024-01-10T00:20:27;8;7;
28647;PMS5003;17137;51.494;-0.262;2024-01-10T00:20:57;8;7;
28647;PMS5003;17137;51.494;-0.262;2024-01-10T00:21:28;8;6;
28647;PMS5003;17137;51.494;-0.262;2024-01-10T00:21:58;8;6;
28647;PMS5003;17137;51.494;-0.262;2024-01-10T00:22:28;8;6;
28647;PMS5003;17137;51.494;-0.262;2024-01-10T00:22:59;8;6;
28647;PMS5003;17137;51.494;-0.262;2024-01-10T00:23:29;8;6;
28647;PMS5003;17137;51.494;-0.262;2024-01-10T00:23:59;8;6;
28647;PMS5003;17137;51.494;-0.262;2024-01-10T00:24:29;8;6;
28647;PMS5003;17137;51.494;-0.262;2024-01-10T00:24:59;8;6;
28647;PMS5003;17137;51.494;-0.262;2024-01-10T00:25:29;8;6;
28647;PMS5003;17137;51.494;-0.262;2024-01-10T00:26:00;8;6;
28647;PMS5003;17137;51.494;-0.262;2024-01-10T00:26:30;8;6;
28647;PMS5003;17137;51.494;-0.262;2024-01-10T00:27:00;8;6;
28647;PMS5003;17137;51.494;-0.262;2024-01-10T00:27:30;10;6;
28647;PMS5003;17137;51.494;-0.262;2024-01-10T00:28:01;10;6;
28647;PMS5003;17137;51.494;-0.262;2024-01-10T00:28:31;10;6;
28647;PMS5003;17137;51.494;-0.262;2024-01-10T00:29:01;10;7;
28647;PMS5003;17137;51.494;-0.262;2024-01-10T00:29:31;10;7;
28647;PMS5003;17137;51.494;-0.262;2024-01-10T00:30:02;10;7;
28647;PMS5003;17137;51.494;-0.262;2024-01-10T00:30:33;12;7;
28647;PMS5003;17137;51.494;-0.262;2024-01-10T00:31:03;12;7;
28647;PMS5003;17137;51.494;-0.262;2024-01-10T00:31:33;12;7;
28647;PMS5003;17137;51.494;-0.262;2024-01-10T00:32:04;12;7;
28647;PMS5003;17137;51.494;-0.262;2024-01-10T00:32:35;12;7;
28647;PMS5003;17137;51.494;-0.262;2024-01-10T00:33:05;12;7;
28647;PMS5003;17137;51.494;-0.262;2024-01-10T00:33:36;12;7;
28647;PMS5003;17137;51.494;-0.262;2024-01-10T00:34:06;11;6;
28647;PMS5003;17137;51.494;-0.262;2024-01-10T00:34:36;11;6;
28647;PMS5003;17137;51.494;-0.262;2024-01-10T00:35:07;12;7;
28647;PMS5003;17137;51.494;-0.262;2024-01-10T00:35:37;12;7;
28647;PMS5003;17137;51.494;-0.262;2024-01-10T00:36:07;13;8;
28647;PMS5003;17137;51.494;-0.262;2024-01-10T00:36:38;13;8;
28647;PMS5003;17137;51.494;-0.262;2024-01-10T00:37:08;13;8;
28647;PMS5003;17137;51.494;-0.262;2024-01-10T00:37:38;13;8;
28647;PMS5003;17137;51.494;-0.262;2024-01-10T00:38:09;13;8;
28647;PMS5003;17137;51.494;-0.262;2024-01-10T00:38:39;13;8;
28647;PMS5003;17137;51.494;-0.262;2024-01-10T00:39:10;13;8;
28647;PMS5003;17137;51.494;-0.262;2024-01-10T00:39:40;12;7;
28647;PMS5003;17137;51.494;-0.262;2024-01-10T00:40:10;12;7;
28647;PMS5003;17137;51.494;-0.262;2024-01-10T00:40:41;12;7;
28647;PMS5003;17137;51.494;-0.262;2024-01-10T00:41:11;13;8;
28647;PMS5003;17137;51.494;-0.262;2024-01-10T00:41:41;13;8;
28647;PMS5003;17137;51.494;-0.262;2024-01-10T00:42:11;13;8;
28647;PMS5003;17137;51.494;-0.262;2024-01-10T00:42:42;11;8;
28647;PMS5003;17137;51.494;-0.262;2024-01-10T00:43:12;11;8;
28647;PMS5003;17137;51.494;-0.262;2024-01-10T00:43:42;11;8;
28647;PMS5003;17137;51.494;-0.262;2024-01-10T00:44:12;10;7;
28647;PMS5003;17137;51.494;-0.262;2024-01-10T00:44:42;10;7;
28647;PMS5003;17137;51.494;-0.262;2024-01-10T00:45:13;10;7;
28647;PMS5003;17137;51.494;-0.262;2024-01-10T00:45:43;9;7;
28647;PMS5003;17137;51.494;-0.262;2024-01-10T00:46:13;9;7;
28647;PMS5003;17137;51.494;-0.262;2024-01-10T00:46:43;9;7;
28647;PMS5003;17137;51.494;-0.262;2024-01-10T00:47:14;9;7;
28647;PMS5003;17137;51.494;-0.262;2024-01-10T00:47:44;9;7;
28647;PMS5003;17137;51.494;-0.262;2024-01-10T00:48:19;8;6;
28647;PMS5003;17137;51.494;-0.262;2024-01-10T00:48:49;6;6;
28647;PMS5003;17137;51.494;-0.262;2024-01-10T00:49:20;6;6;
28647;PMS5003;17137;51.494;-0.262;2024-01-10T00:49:50;7;7;
28647;PMS5003;17137;51.494;-0.262;2024-01-10T00:50:20;7;7;
28647;PMS5003;17137;51.494;-0.262;2024-01-10T00:50:50;7;7;
28647;PMS5003;17137;51.494;-0.262;2024-01-10T00:51:21;7;7;
28647;PMS5003;17137;51.494;-0.262;2024-01-10T00:51:51;7;7;
28647;PMS5003;17137;51.494;-0.262;2024-01-10T00:52:21;7;7;
28647;PMS5003;17137;51.494;-0.262;2024-01-10T00:52:51;7;7;
28647;PMS5003;17137;51.494;-0.262;2024-01-10T00:53:22;6;6;
28647;PMS5003;17137;51.494;-0.262;2024-01-10T00:53:52;6;6;
28647;PMS5003;17137;51.494;-0.262;2024-01-10T00:54:22;6;6;
28647;PMS5003;17137;51.494;-0.262;2024-01-10T00:54:52;6;6;
28647;PMS5003;17137;51.494;-0.262;2024-01-10T00:55:22;6;6;
28647;PMS5003;17137;51.494;-0.262;2024-01-10T00:55:53;6;6;
28647;PMS5003;17137;51.494;-0.262;2024-01-10T00:56:23;6;6;
28647;PMS5003;17137;51.494;-0.262;2024-01-10T00:56:53;6;6;
28647;PMS5003;17137;51.494;-0.262;2024-01-10T00:57:23;6;6;
28647;PMS5003;17137;51.494;-0.262;2024-01-10T00:57:55;7;7;
28647;PMS5003;17137;51.494;-0.262;2024-01-10T00:58:25;7;7;
28647;PMS5003;17137;51.494;-0.262;2024-01-10T00:58:55;7;7;
28647;PMS5003;17137;51.494;-0.262;2024-01-10T00:59:25;9;9;
28647;PMS5003;17137;51.494;-0.262;2024-01-10T00:59:56;9;9;
28647;PMS5003;17137;51.494;-0.262;2024-01-10T01:00:26;8;8;
28647;PMS5003;17137;51.494;-0.262;2024-01-10T01:00:56;9;9;
28647;PMS5003;17137;51.494;-0.262;2024-01-10T01:01:26;9;9;
28647;PMS5003;17137;51.494;-0.262;2024-01-10T01:01:57;9;9;
28647;PMS5003;17137;51.494;-0.262;2024-01-10T01:02:27;9;9;
28647;PMS5003;17137;51.494;-0.262;2024-01-10T01:02:57;9;9;
28647;PMS5003;17137;51.494;-0.262;2024-01-10T01:03:27;9;9;
28647;PMS5003;17137;51.494;-0.262;2024-01-10T01:03:58;10;10;
28647;PMS5003;17137;51.494;-0.262;2024-01-10T01:04:28;10;10;
28647;PMS5003;17137;51.494;-0.262;2024-01-10T01:04:58;10;10;
28647;PMS5003;17137;51.494;-0.262;2024-01-10T01:05:28;10;10;
28647;PMS5003;17137;51.494;-0.262;2024-01-10T01:05:59;10;10;
28647;PMS5003;17137;51.494;-0.262;2024-01-10T01:06:29;10;10;
28647;PMS5003;17137;51.494;-0.262;2024-01-10T01:06:59;10;10;
28647;PMS5003;17137;51.494;-0.262;2024-01-10T01:07:29;11;11;
28647;PMS5003;17137;51.494;-0.262;2024-01-10T01:08:00;11;11;
28647;PMS5003;17137;51.494;-0.262;2024-01-10T01:08:30;11;11;
28647;PMS5003;17137;51.494;-0.262;2024-01-10T01:09:00;11;11;
28647;PMS5003;17137;51.494;-0.262;2024-01-10T01:09:30;11;11;
28647;PMS5003;17137;51.494;-0.262;2024-01-10T01:10:01;11;11;
28647;PMS5003;17137;51.494;-0.262;2024-01-10T01:10:31;11;11;
28647;PMS5003;17137;51.494;-0.262;2024-01-10T01:11:01;11;11;
28647;PMS5003;17137;51.494;-0.262;2024-01-10T01:11:32;11;11;
28647;PMS5003;17137;51.494;-0.262;2024-01-10T01:12:02;11;11;
28647;PMS5003;17137;51.494;-0.262;2024-01-10T01:12:33;10;10;
28647;PMS5003;17137;51.494;-0.262;2024-01-10T01:13:03;9;9;
28647;PMS5003;17137;51.494;-0.262;2024-01-10T01:13:34;9;9;
28647;PMS5003;17137;51.494;-0.262;2024-01-10T01:14:04;9;9;
28647;PMS5003;17137;51.494;-0.262;2024-01-10T01:14:34;9;9;
28647;PMS5003;17137;51.494;-0.262;2024-01-10T01:15:05;9;9;
28647;PMS5003;17137;51.494;-0.262;2024-01-10T01:15:36;9;9;
28647;PMS5003;17137;51.494;-0.262;2024-01-10T01:16:06;7;7;
28647;PMS5003;17137;51.494;-0.262;2024-01-10T01:16:36;7;7;
28647;PMS5003;17137;51.494;-0.262;2024-01-10T01:17:07;7;7;
28647;PMS5003;17137;51.494;-0.262;2024-01-10T01:17:37;7;7;
28647;PMS5003;17137;51.494;-0.262;2024-01-10T01:18:07;8;8;
28647;PMS5003;17137;51.494;-0.262;2024-01-10T01:18:37;8;8;
28647;PMS5003;17137;51.494;-0.262;2024-01-10T01:19:08;8;8;
28647;PMS5003;17137;51.494;-0.262;2024-01-10T01:19:38;7;7;
28647;PMS5003;17137;51.494;-0.262;2024-01-10T01:20:08;7;7;
28647;PMS5003;17137;51.494;-0.262;2024-01-10T01:20:39;5;5;
28647;PMS5003;17137;51.494;-0.262;2024-01-10T01:21:09;6;6;
28647;PMS5003;17137;51.494;-0.262;2024-01-10T01:21:39;6;6;
28647;PMS5003;17137;51.494;-0.262;2024-01-10T01:22:09;6;6;
28647;PMS5003;17137;51.494;-0.262;2024-01-10T01:22:40;6;6;
28647;PMS5003;17137;51.494;-0.262;2024-01-10T01:23:10;6;6;
28647;PMS5003;17137;51.494;-0.262;2024-01-10T01:23:40;7;7;
28647;PMS5003;17137;51.494;-0.262;2024-01-10T01:24:11;7;7;
28647;PMS5003;17137;51.494;-0.262;2024-01-10T01:24:41;7;7;
28647;PMS5003;17137;51.494;-0.262;2024-01-10T01:25:11;8;8;
28647;PMS5003;17137;51.494;-0.262;2024-01-10T01:25:41;8;8;
28647;PMS5003;17137;51.494;-0.262;2024-01-10T01:26:12;8;8;
28647;PMS5003;17137;51.494;-0.262;2024-01-10T01:26:42;9;8;
28647;PMS5003;17137;51.494;-0.262;2024-01-10T01:27:12;9;8;
28647;PMS5003;17137;51.494;-0.262;2024-01-10T01:27:42;9;8;
28647;PMS5003;17137;51.494;-0.262;2024-01-10T01:28:13;10;7;
28647;PMS5003;17137;51.494;-0.262;2024-01-10T01:28:43;10;7;
28647;PMS5003;17137;51.494;-0.262;2024-01-10T01:29:13;10;7;
28647;PMS5003;17137;51.494;-0.262;2024-01-10T01:29:43;10;6;
28647;PMS5003;17137;51.494;-0.262;2024-01-10T01:30:14;10;6;
28647;PMS5003;17137;51.494;-0.262;2024-01-10T01:30:44;10;6;
28647;PMS5003;17137;51.494;-0.262;2024-01-10T01:31:14;9;6;
28647;PMS5003;17137;51.494;-0.262;2024-01-10T01:31:44;9;6;
28647;PMS5003;17137;51.494;-0.262;2024-01-10T01:32:15;9;6;
28647;PMS5003;17137;51.494;-0.262;2024-01-10T01:32:45;9;6;
28647;PMS5003;17137;51.494;-0.262;2024-01-10T01:33:15;9;6;
28647;PMS5003;17137;51.494;-0.262;2024-01-10T01:33:45;9;6;
28647;PMS5003;17137;51.494;-0.262;2024-01-10T01:34:16;11;7;
28647;PMS5003;17137;51.494;-0.262;2024-01-10T01:34:46;11;7;
28647;PMS5003;17137;51.494;-0.262;2024-01-10T01:35:16;10;6;
28647;PMS5003;17137;51.494;-0.262;2024-01-10T01:35:46;10;6;
28647;PMS5003;17137;51.494;-0.262;2024-01-10T01:36:17;10;6;
28647;PMS5003;17137;51.494;-0.262;2024-01-10T01:36:47;10;6;
28647;PMS5003;17137;51.494;-0.262;2024-01-10T01:37:17;11;7;
28647;PMS5003;17137;51.494;-0.262;2024-01-10T01:37:47;11;7;
28647;PMS5003;17137;51.494;-0.262;2024-01-10T01:38:23;11;7;
28647;PMS5003;17137;51.494;-0.262;2024-01-10T01:38:53;10;5;
28647;PMS5003;17137;51.494;-0.262;2024-01-10T01:39:23;10;5;
28647;PMS5003;17137;51.494;-0.262;2024-01-10T01:39:53;10;5;
28647;PMS5003;17137;51.494;-0.262;2024-01-10T01:40:23;9;5;
28647;PMS5003;17137;51.494;-0.262;2024-01-10T01:40:54;9;5;
28647;PMS5003;17137;51.494;-0.262;2024-01-10T01:41:24;9;5;
28647;PMS5003;17137;51.494;-0.262;2024-01-10T01:41:54;8;5;
28647;PMS5003;17137;51.494;-0.262;2024-01-10T01:42:24;9;6;
28647;PMS5003;17137;51.494;-0.262;2024-01-10T01:42:54;9;6;
28647;PMS5003;17137;51.494;-0.262;2024-01-10T01:43:25;7;6;
28647;PMS5003;17137;51.494;-0.262;2024-01-10T01:43:56;7;6;
28647;PMS5003;17137;51.494;-0.262;2024-01-10T01:44:26;7;6;
28647;PMS5003;17137;51.494;-0.262;2024-01-10T01:44:56;8;6;
28647;PMS5003;17137;51.494;-0.262;2024-01-10T01:45:26;8;6;
28647;PMS5003;17137;51.494;-0.262;2024-01-10T01:45:56;7;5;
28647;PMS5003;17137;51.494;-0.262;2024-01-10T01:46:27;7;5;
28647;PMS5003;17137;51.494;-0.262;2024-01-10T01:46:57;7;5;
28647;PMS5003;17137;51.494;-0.262;2024-01-10T01:47:28;8;6;
28647;PMS5003;17137;51.494;-0.262;2024-01-10T01:47:58;8;6;
28647;PMS5003;17137;51.494;-0.262;2024-01-10T01:48:29;8;6;
28647;PMS5003;17137;51.494;-0.262;2024-01-10T01:48:59;8;6;
28647;PMS5003;17137;51.494;-0.262;2024-01-10T01:49:30;5;5;
28647;PMS5003;17137;51.494;-0.262;2024-01-10T01:50:00;5;5;
28647;PMS5003;17137;51.494;-0.262;2024-01-10T01:50:30;5;5;
28647;PMS5003;17137;51.494;-0.262;2024-01-10T01:51:06;5;5;
28647;PMS5003;17137;51.494;-0.262;2024-01-10T01:51:38;5;5;
28647;PMS5003;17137;51.494;-0.262;2024-01-10T01:52:09;5;5;
28647;PMS5003;17137;51.494;-0.262;2024-01-10T01:52:40;4;4;
28647;PMS5003;17137;51.494;-0.262;2024-01-10T01:53:11;4;4;
28647;PMS5003;17137;51.494;-0.262;2024-01-10T01:53:42;4;4;
28647;PMS5003;17137;51.494;-0.262;2024-01-10T01:54:14;4;4;
28647;PMS5003;17137;51.494;-0.262;2024-01-10T01:54:44;5;5;
28647;PMS5003;17137;51.494;-0.262;2024-01-10T01:55:15;5;5;
28647;PMS5003;17137;51.494;-0.262;2024-01-10T01:55:45;6;6;
28647;PMS5003;17137;51.494;-0.262;2024-01-10T01:56:16;6;6;
28647;PMS5003;17137;51.494;-0.262;2024-01-10T01:56:46;5;5;
28647;PMS5003;17137;51.494;-0.262;2024-01-10T01:57:17;4;4;
28647;PMS5003;17137;51.494;-0.262;2024-01-10T01:57:48;4;4;
28647;PMS5003;17137;51.494;-0.262;2024-01-10T01:58:23;5;5;
28647;PMS5003;17137;51.494;-0.262;2024-01-10T01:58:53;6;6;
28647;PMS5003;17137;51.494;-0.262;2024-01-10T01:59:24;6;6;
28647;PMS5003;17137;51.494;-0.262;2024-01-10T01:59:55;5;5;
28647;PMS5003;17137;51.494;-0.262;2024-01-10T02:00:25;6;4;
28647;PMS5003;17137;51.494;-0.262;2024-01-10T02:00:56;6;4;
28647;PMS5003;17137;51.494;-0.262;2024-01-10T02:01:26;6;4;
28647;PMS5003;17137;51.494;-0.262;2024-01-10T02:01:56;7;6;
28647;PMS5003;17137;51.494;-0.262;2024-01-10T02:02:30;7;6;
28647;PMS5003;17137;51.494;-0.262;2024-01-10T02:03:01;7;6;
28647;PMS5003;17137;51.494;-0.262;2024-01-10T02:03:32;7;6;
28647;PMS5003;17137;51.494;-0.262;2024-01-10T02:04:02;7;6;
28647;PMS5003;17137;51.494;-0.262;2024-01-10T02:04:33;7;6;
28647;PMS5003;17137;51.494;-0.262;2024-01-10T02:05:04;7;6;
28647;PMS5003;17137;51.494;-0.262;2024-01-10T02:05:35;6;5;
28647;PMS5003;17137;51.494;-0.262;2024-01-10T02:06:11;6;5;
28647;PMS5003;17137;51.494;-0.262;2024-01-10T02:06:42;6;4;
28647;PMS5003;17137;51.494;-0.262;2024-01-10T02:07:12;7;5;
28647;PMS5003;17137;51.494;-0.262;2024-01-10T02:07:42;7;5;
28647;PMS5003;17137;51.494;-0.262;2024-01-10T02:08:13;9;6;
28647;PMS5003;17137;51.494;-0.262;2024-01-10T02:08:43;9;6;
28647;PMS5003;17137;51.494;-0.262;2024-01-10T02:09:13;8;5;
28647;PMS5003;17137;51.494;-0.262;2024-01-10T02:09:44;8;5;
28647;PMS5003;17137;51.494;-0.262;2024-01-10T02:10:14;8;5;
28647;PMS5003;17137;51.494;-0.262;2024-01-10T02:10:44;9;6;
28647;PMS5003;17137;51.494;-0.262;2024-01-10T02:11:15;9;6;
28647;PMS5003;17137;51.494;-0.262;2024-01-10T02:11:45;9;6;
28647;PMS5003;17137;51.494;-0.262;2024-01-10T02:12:16;9;6;
28647;PMS5003;17137;51.494;-0.262;2024-01-10T02:12:46;9;6;
28647;PMS5003;17137;51.494;-0.262;2024-01-10T02:13:16;9;6;
28647;PMS5003;17137;51.494;-0.262;2024-01-10T02:13:47;9;6;
28647;PMS5003;17137;51.494;-0.262;2024-01-10T02:14:17;9;6;
28647;PMS5003;17137;51.494;-0.262;2024-01-10T02:14:48;9;6;
28647;PMS5003;17137;51.494;-0.262;2024-01-10T02:15:18;9;6;
28647;PMS5003;17137;51.494;-0.262;2024-01-10T02:15:48;9;6;
28647;PMS5003;17137;51.494;-0.262;2024-01-10T02:16:19;9;6;
28647;PMS5003;17137;51.494;-0.262;2024-01-10T02:16:49;9;6;
28647;PMS5003;17137;51.494;-0.262;2024-01-10T02:17:19;10;6;
28647;PMS5003;17137;51.494;-0.262;2024-01-10T02:17:49;10;6;
28647;PMS5003;17137;51.494;-0.262;2024-01-10T02:18:20;10;6;
28647;PMS5003;17137;51.494;-0.262;2024-01-10T02:18:50;10;6;
28647;PMS5003;17137;51.494;-0.262;2024-01-10T02:19:21;10;6;
28647;PMS5003;17137;51.494;-0.262;2024-01-10T02:20:07;10;6;
28647;PMS5003;17137;51.494;-0.262;2024-01-10T02:20:38;11;6;
28647;PMS5003;17137;51.494;-0.262;2024-01-10T02:21:08;11;6;
28647;PMS5003;17137;51.494;-0.262;2024-01-10T02:21:38;10;5;
28647;PMS5003;17137;51.494;-0.262;2024-01-10T02:22:09;10;5;
28647;PMS5003;17137;51.494;-0.262;2024-01-10T02:22:39;10;5;
28647;PMS5003;17137;51.494;-0.262;2024-01-10T02:23:09;11;6;
28647;PMS5003;17137;51.494;-0.262;2024-01-10T02:23:40;10;6;
28647;PMS5003;17137;51.494;-0.262;2024-01-10T02:24:10;10;6;
28647;PMS5003;17137;51.494;-0.262;2024-01-10T02:24:40;10;6;
28647;PMS5003;17137;51.494;-0.262;2024-01-10T02:25:11;10;6;
28647;PMS5003;17137;51.494;-0.262;2024-01-10T02:25:46;10;6;
28647;PMS5003;17137;51.494;-0.262;2024-01-10T02:26:16;10;6;
28647;PMS5003;17137;51.494;-0.262;2024-01-10T02:26:47;10;6;
28647;PMS5003;17137;51.494;-0.262;2024-01-10T02:27:18;10;6;
28647;PMS5003;17137;51.494;-0.262;2024-01-10T02:27:48;10;6;
28647;PMS5003;17137;51.494;-0.262;2024-01-10T02:28:19;10;6;
28647;PMS5003;17137;51.494;-0.262;2024-01-10T02:29:18;7;5;
28647;PMS5003;17137;51.494;-0.262;2024-01-10T02:29:48;7;5;
28647;PMS5003;17137;51.494;-0.262;2024-01-10T02:30:19;7;5;
28647;PMS5003;17137;51.494;-0.262;2024-01-10T02:30:50;7;5;
28647;PMS5003;17137;51.494;-0.262;2024-01-10T02:31:22;6;5;
28647;PMS5003;17137;51.494;-0.262;2024-01-10T02:31:52;6;5;
28647;PMS5003;17137;51.494;-0.262;2024-01-10T02:32:22;5;4;
28647;PMS5003;17137;51.494;-0.262;2024-01-10T02:32:52;5;4;
28647;PMS5003;17137;51.494;-0.262;2024-01-10T02:33:23;5;4;
28647;PMS5003;17137;51.494;-0.262;2024-01-10T02:33:53;5;4;
28647;PMS5003;17137;51.494;-0.262;2024-01-10T02:34:23;7;5;
28647;PMS5003;17137;51.494;-0.262;2024-01-10T02:34:54;7;5;
28647;PMS5003;17137;51.494;-0.262;2024-01-10T02:35:24;7;5;
28647;PMS5003;17137;51.494;-0.262;2024-01-10T02:35:54;7;6;
28647;PMS5003;17137;51.494;-0.262;2024-01-10T02:36:53;4;4;
28647;PMS5003;17137;51.494;-0.262;2024-01-10T02:37:24;5;5;
28647;PMS5003;17137;51.494;-0.262;2024-01-10T02:37:54;5;5;
28647;PMS5003;17137;51.494;-0.262;2024-01-10T02:38:24;5;5;
28647;PMS5003;17137;51.494;-0.262;2024-01-10T02:38:55;5;5;
28647;PMS5003;17137;51.494;-0.262;2024-01-10T02:39:25;5;5;
28647;PMS5003;17137;51.494;-0.262;2024-01-10T02:39:55;5;5;
28647;PMS5003;17137;51.494;-0.262;2024-01-10T02:40:25;5;5;
28647;PMS5003;17137;51.494;-0.262;2024-01-10T02:40:56;5;5;
28647;PMS5003;17137;51.494;-0.262;2024-01-10T02:41:26;5;5;
28647;PMS5003;17137;51.494;-0.262;2024-01-10T02:41:56;5;5;
28647;PMS5003;17137;51.494;-0.262;2024-01-10T02:42:26;5;5;
28647;PMS5003;17137;51.494;-0.262;2024-01-10T02:42:57;5;5;
28647;PMS5003;17137;51.494;-0.262;2024-01-10T02:43:27;5;5;
28647;PMS5003;17137;51.494;-0.262;2024-01-10T02:43:58;5;5;
28647;PMS5003;17137;51.494;-0.262;2024-01-10T02:44:28;4;4;
28647;PMS5003;17137;51.494;-0.262;2024-01-10T02:44:58;4;4;
28647;PMS5003;17137;51.494;-0.262;2024-01-10T02:45:28;4;4;
28647;PMS5003;17137;51.494;-0.262;2024-01-10T02:45:59;4;4;
28647;PMS5003;17137;51.494;-0.262;2024-01-10T02:46:29;4;4;
28647;PMS5003;17137;51.494;-0.262;2024-01-10T02:46:59;4;4;
28647;PMS5003;17137;51.494;-0.262;2024-01-10T02:47:31;4;4;
28647;PMS5003;17137;51.494;-0.262;2024-01-10T02:48:02;4;4;
28647;PMS5003;17137;51.494;-0.262;2024-01-10T02:48:33;4;4;
28647;PMS5003;17137;51.494;-0.262;2024-01-10T02:49:04;3;3;
28647;PMS5003;17137;51.494;-0.262;2024-01-10T02:49:34;3;3;
28647;PMS5003;17137;51.494;-0.262;2024-01-10T02:50:05;3;3;
28647;PMS5003;17137;51.494;-0.262;2024-01-10T02:50:41;3;3;
28647;PMS5003;17137;51.494;-0.262;2024-01-10T02:51:11;3;3;
28647;PMS5003;17137;51.494;-0.262;2024-01-10T02:51:41;3;3;
28647;PMS5003;17137;51.494;-0.262;2024-01-10T02:52:11;3;3;
28647;PMS5003;17137;51.494;-0.262;2024-01-10T02:52:42;7;4;
28647;PMS5003;17137;51.494;-0.262;2024-01-10T02:53:12;7;4;
28647;PMS5003;17137;51.494;-0.262;2024-01-10T02:53:42;7;4;
28647;PMS5003;17137;51.494;-0.262;2024-01-10T02:54:12;7;4;
28647;PMS5003;17137;51.494;-0.262;2024-01-10T02:54:42;7;4;
28647;PMS5003;17137;51.494;-0.262;2024-01-10T02:55:13;7;4;
28647;PMS5003;17137;51.494;-0.262;2024-01-10T02:55:43;7;4;
28647;PMS5003;17137;51.494;-0.262;2024-01-10T02:56:14;6;3;
28647;PMS5003;17137;51.494;-0.262;2024-01-10T02:56:44;6;3;
28647;PMS5003;17137;51.494;-0.262;2024-01-10T02:57:14;6;3;
28647;PMS5003;17137;51.494;-0.262;2024-01-10T02:57:44;6;3;
28647;PMS5003;17137;51.494;-0.262;2024-01-10T02:58:14;6;3;
28647;PMS5003;17137;51.494;-0.262;2024-01-10T02:58:45;6;3;
28647;PMS5003;17137;51.494;-0.262;2024-01-10T02:59:15;6;3;
28647;PMS5003;17137;51.494;-0.262;2024-01-10T02:59:45;6;3;
28647;PMS5003;17137;51.494;-0.262;2024-01-10T03:00:15;6;3;
28647;PMS5003;17137;51.494;-0.262;2024-01-10T03:00:46;8;6;
28647;PMS5003;17137;51.494;-0.262;2024-01-10T03:01:16;7;5;
28647;PMS5003;17137;51.494;-0.262;2024-01-10T03:01:46;6;4;
28647;PMS5003;17137;51.494;-0.262;2024-01-10T03:02:16;6;4;
28647;PMS5003;17137;51.494;-0.262;2024-01-10T03:02:47;7;4;
28647;PMS5003;17137;51.494;-0.262;2024-01-10T03:03:17;7;4;
28647;PMS5003;17137;51.494;-0.262;2024-01-10T03:03:48;8;5;
28647;PMS5003;17137;51.494;-0.262;2024-01-10T03:04:18;7;5;
28647;PMS5003;17137;51.494;-0.262;2024-01-10T03:04:48;7;5;
28647;PMS5003;17137;51.494;-0.262;2024-01-10T03:05:19;7;5;
28647;PMS5003;17137;51.494;-0.262;2024-01-10T03:05:49;7;4;
28647;PMS5003;17137;51.494;-0.262;2024-01-10T03:06:19;7;4;
28647;PMS5003;17137;51.494;-0.262;2024-01-10T03:06:49;7;4;
28647;PMS5003;17137;51.494;-0.262;2024-01-10T03:07:20;6;3;
28647;PMS5003;17137;51.494;-0.262;2024-01-10T03:07:51;6;3;
28647;PMS5003;17137;51.494;-0.262;2024-01-10T03:08:22;6;3;
28647;PMS5003;17137;51.494;-0.262;2024-01-10T03:08:52;6;6;
28647;PMS5003;17137;51.494;-0.262;2024-01-10T03:09:23;6;6;
28647;PMS5003;17137;51.494;-0.262;2024-01-10T03:09:54;6;6;
28647;PMS5003;17137;51.494;-0.262;2024-01-10T03:10:24;6;6;
28647;PMS5003;17137;51.494;-0.262;2024-01-10T03:10:54;5;5;
28647;PMS5003;17137;51.494;-0.262;2024-01-10T03:11:24;5;5;
28647;PMS5003;17137;51.494;-0.262;2024-01-10T03:11:55;5;5;
28647;PMS5003;17137;51.494;-0.262;2024-01-10T03:12:25;5;5;
28647;PMS5003;17137;51.494;-0.262;2024-01-10T03:12:55;5;5;
28647;PMS5003;17137;51.494;-0.262;2024-01-10T03:13:25;5;5;
28647;PMS5003;17137;51.494;-0.262;2024-01-10T03:14:01;5;5;
28647;PMS5003;17137;51.494;-0.262;2024-01-10T03:14:33;5;5;
28647;PMS5003;17137;51.494;-0.262;2024-01-10T03:15:04;5;5;
28647;PMS5003;17137;51.494;-0.262;2024-01-10T03:15:35;4;4;
28647;PMS5003;17137;51.494;-0.262;2024-01-10T03:16:05;4;4;
28647;PMS5003;17137;51.494;-0.262;2024-01-10T03:16:41;4;4;
28647;PMS5003;17137;51.494;-0.262;2024-01-10T03:17:11;6;4;
28647;PMS5003;17137;51.494;-0.262;2024-01-10T03:17:41;6;4;
28647;PMS5003;17137;51.494;-0.262;2024-01-10T03:18:11;6;4;
28647;PMS5003;17137;51.494;-0.262;2024-01-10T03:18:41;6;4;
28647;PMS5003;17137;51.494;-0.262;2024-01-10T03:19:12;6;4;
28647;PMS5003;17137;51.494;-0.262;2024-01-10T03:19:42;6;4;
28647;PMS5003;17137;51.494;-0.262;2024-01-10T03:20:12;6;5;
28647;PMS5003;17137;51.494;-0.262;2024-01-10T03:20:43;6;5;
28647;PMS5003;17137;51.494;-0.262;2024-01-10T03:21:13;6;5;
28647;PMS5003;17137;51.494;-0.262;2024-01-10T03:21:43;8;5;
28647;PMS5003;17137;51.494;-0.262;2024-01-10T03:22:14;8;5;
28647;PMS5003;17137;51.494;-0.262;2024-01-10T03:22:44;8;5;
28647;PMS5003;17137;51.494;-0.262;2024-01-10T03:23:14;6;5;
28647;PMS5003;17137;51.494;-0.262;2024-01-10T03:23:44;5;4;
28647;PMS5003;17137;51.494;-0.262;2024-01-10T03:24:14;5;4;
28647;PMS5003;17137;51.494;-0.262;2024-01-10T03:24:45;5;3;
28647;PMS5003;17137;51.494;-0.262;2024-01-10T03:25:15;6;5;
28647;PMS5003;17137;51.494;-0.262;2024-01-10T03:25:45;6;5;